createdAt,value
2018-05-13T00:02:24.716Z,64.29
2018-05-13T00:04:52.676Z,65.21
2018-05-13T00:07:20.862Z,63.71
2018-05-13T00:09:48.826Z,64.43
2018-05-13T00:12:16.874Z,64.40
2018-05-13T00:14:44.889Z,64.19
2018-05-13T00:17:12.930Z,64.07
2018-05-13T00:19:40.895Z,67.73
2018-05-13T00:22:08.831Z,69.58
2018-05-13T00:24:36.817Z,66.85
2018-05-13T00:27:04.875Z,67.77
2018-05-13T00:29:32.874Z,68.41
2018-05-13T00:32:00.881Z,67.26
2018-05-13T00:34:28.917Z,68.69
2018-05-13T00:36:56.935Z,70.78
2018-05-13T00:39:25.016Z,69.22
2018-05-13T00:41:53.061Z,68.11
2018-05-13T00:44:21.166Z,70.36
2018-05-13T00:46:49.128Z,70.60
2018-05-13T00:49:17.172Z,68.12
2018-05-13T00:51:45.147Z,67.00
2018-05-13T00:54:24.923Z,66.28
2018-05-13T00:56:52.949Z,65.39
2018-05-13T00:59:20.886Z,65.88
2018-05-13T01:01:48.990Z,65.33
2018-05-13T01:04:17.047Z,65.03
2018-05-13T01:06:45.058Z,65.02
2018-05-13T01:09:13.349Z,66.12
2018-05-13T01:11:41.237Z,65.30
2018-05-13T01:14:09.257Z,64.75
2018-05-13T01:16:37.267Z,64.47
2018-05-13T01:19:05.249Z,64.00
2018-05-13T01:21:33.305Z,64.22
2018-05-13T01:24:01.258Z,64.74
2018-05-13T01:26:29.224Z,64.51
2018-05-13T01:28:57.163Z,64.57
2018-05-13T01:31:25.198Z,64.55
2018-05-13T01:33:53.221Z,64.67
2018-05-13T01:36:21.117Z,66.24
2018-05-13T01:38:49.079Z,65.52
2018-05-13T01:41:17.103Z,66.40
2018-05-13T01:43:45.098Z,66.38
2018-05-13T01:46:13.126Z,65.51
2018-05-13T01:48:41.122Z,67.08
2018-05-13T01:51:09.110Z,65.88
2018-05-13T01:53:37.135Z,65.29
2018-05-13T01:56:05.110Z,65.24
2018-05-13T01:58:33.113Z,64.80
2018-05-13T02:01:01.157Z,66.76
2018-05-13T02:03:29.240Z,66.64
2018-05-13T02:05:57.277Z,64.62
2018-05-13T02:08:25.475Z,64.46
2018-05-13T02:10:53.834Z,65.75
2018-05-13T02:13:21.781Z,65.43
2018-05-13T02:15:49.829Z,64.38
2018-05-13T02:18:17.846Z,63.41
2018-05-13T02:20:45.858Z,63.68
2018-05-13T02:23:13.939Z,65.35
2018-05-13T02:25:41.870Z,65.17
2018-05-13T02:28:09.901Z,66.26
2018-05-13T02:30:38.002Z,65.50
2018-05-13T02:33:05.943Z,65.07
2018-05-13T02:35:33.940Z,65.07
2018-05-13T02:38:01.881Z,64.25
2018-05-13T02:40:29.926Z,64.10
2018-05-13T02:42:58.010Z,65.17
2018-05-13T02:45:26.044Z,65.75
2018-05-13T02:47:53.977Z,64.64
2018-05-13T02:50:21.977Z,64.29
2018-05-13T02:52:49.996Z,65.67
2018-05-13T02:55:17.957Z,64.75
2018-05-13T02:57:45.979Z,67.30
2018-05-13T03:00:13.973Z,64.96
2018-05-13T03:02:42.045Z,65.11
2018-05-13T03:05:09.996Z,63.15
2018-05-13T03:07:38.024Z,64.61
2018-05-13T03:10:06.027Z,64.20
2018-05-13T03:12:34.222Z,63.46
2018-05-13T03:15:02.279Z,64.06
2018-05-13T03:17:30.379Z,65.55
2018-05-13T03:19:58.425Z,65.56
2018-05-13T03:22:26.386Z,65.43
2018-05-13T03:24:54.380Z,64.78
2018-05-13T03:27:22.294Z,63.91
2018-05-13T03:29:50.262Z,63.83
2018-05-13T03:32:18.288Z,63.75
2018-05-13T03:34:46.243Z,63.04
2018-05-13T03:37:14.272Z,62.90
2018-05-13T03:39:42.319Z,62.85
2018-05-13T03:42:10.223Z,62.75
2018-05-13T03:44:38.214Z,63.75
2018-05-13T03:47:06.261Z,62.75
2018-05-13T03:49:34.331Z,63.20
2018-05-13T03:52:02.374Z,62.99
2018-05-13T03:54:30.387Z,62.74
2018-05-13T03:56:58.475Z,63.73
2018-05-13T03:59:26.439Z,62.96
2018-05-13T04:01:54.433Z,63.47
2018-05-13T04:04:22.433Z,63.35
2018-05-13T04:06:51.844Z,63.21
2018-05-13T04:09:31.613Z,63.23
2018-05-13T04:12:11.370Z,62.32
2018-05-13T04:14:51.352Z,61.11
2018-05-13T04:17:19.366Z,62.30
2018-05-13T04:19:47.326Z,62.95
2018-05-13T04:22:15.351Z,61.70
2018-05-13T04:24:43.350Z,63.91
2018-05-13T04:27:11.455Z,64.01
2018-05-13T04:29:39.883Z,65.89
2018-05-13T04:32:08.264Z,65.21
2018-05-13T04:34:36.519Z,64.91
2018-05-13T04:37:04.892Z,66.24
2018-05-13T04:39:33.445Z,66.05
2018-05-13T04:42:01.970Z,64.10
2018-05-13T04:44:30.338Z,63.25
2018-05-13T04:46:58.580Z,64.23
2018-05-13T04:49:27.198Z,62.21
2018-05-13T04:51:55.594Z,60.97
2018-05-13T04:54:23.944Z,61.43
2018-05-13T04:56:52.351Z,61.80
2018-05-13T04:59:20.824Z,62.55
2018-05-13T05:01:49.116Z,62.06
2018-05-13T05:04:17.768Z,61.71
2018-05-13T05:06:45.999Z,61.38
2018-05-13T05:09:14.092Z,61.82
2018-05-13T05:11:42.412Z,61.03
2018-05-13T05:14:10.870Z,60.17
2018-05-13T05:16:39.376Z,59.06
2018-05-13T05:19:07.855Z,58.27
2018-05-13T05:21:35.865Z,57.74
2018-05-13T05:24:03.818Z,56.97
2018-05-13T05:26:31.785Z,57.08
2018-05-13T05:28:59.764Z,56.13
2018-05-13T05:31:27.759Z,55.45
2018-05-13T05:33:55.775Z,55.94
2018-05-13T05:36:23.752Z,58.57
2018-05-13T05:38:51.853Z,59.22
2018-05-13T05:41:20.210Z,58.42
2018-05-13T05:43:48.208Z,58.03
2018-05-13T05:46:16.703Z,56.37
2018-05-13T05:48:44.722Z,57.12
2018-05-13T05:51:12.730Z,57.58
2018-05-13T05:53:40.697Z,57.80
2018-05-13T05:56:08.652Z,59.53
2018-05-13T05:58:36.679Z,56.99
2018-05-13T06:01:04.714Z,54.58
2018-05-13T06:03:32.698Z,55.05
2018-05-13T06:06:00.748Z,54.79
2018-05-13T06:08:28.728Z,53.01
2018-05-13T06:10:56.711Z,52.88
2018-05-13T06:13:24.721Z,52.70
2018-05-13T06:15:52.701Z,52.10
2018-05-13T06:18:21.033Z,53.61
2018-05-13T06:20:48.962Z,53.96
2018-05-13T06:23:16.955Z,53.15
2018-05-13T06:25:44.934Z,52.60
2018-05-13T06:28:12.925Z,53.36
2018-05-13T06:30:40.978Z,50.96
2018-05-13T06:33:08.949Z,52.85
2018-05-13T06:35:36.898Z,54.63
2018-05-13T06:38:05.662Z,56.03
2018-05-13T06:40:33.709Z,54.69
2018-05-13T06:43:01.754Z,53.67
2018-05-13T06:45:29.756Z,49.65
2018-05-13T06:47:57.766Z,48.58
2018-05-13T06:50:26.480Z,51.26
2018-05-13T06:52:54.531Z,50.80
2018-05-13T06:55:22.569Z,52.86
2018-05-13T06:57:50.606Z,52.15
2018-05-13T07:00:18.601Z,50.77
2018-05-13T07:02:46.778Z,47.36
2018-05-13T07:05:14.821Z,46.24
2018-05-13T07:07:42.832Z,46.86
2018-05-13T07:10:10.846Z,47.80
2018-05-13T07:12:38.914Z,45.28
2018-05-13T07:15:06.926Z,43.19
2018-05-13T07:17:34.899Z,44.68
2018-05-13T07:20:03.281Z,45.25
2018-05-13T07:22:31.276Z,45.17
2018-05-13T07:24:59.245Z,44.78
2018-05-13T07:27:27.230Z,42.79
2018-05-13T07:29:55.262Z,42.04
2018-05-13T07:32:23.313Z,44.13
2018-05-13T07:34:51.335Z,43.78
2018-05-13T07:37:19.350Z,44.35
2018-05-13T07:39:47.303Z,46.43
2018-05-13T07:42:15.194Z,47.05
2018-05-13T07:44:43.202Z,45.52
2018-05-13T07:47:11.246Z,41.96
2018-05-13T07:49:39.277Z,43.78
2018-05-13T07:52:07.261Z,40.22
2018-05-13T07:54:35.255Z,41.42
2018-05-13T07:57:03.244Z,43.78
2018-05-13T07:59:31.260Z,43.57
2018-05-13T08:01:59.291Z,41.26
2018-05-13T08:04:27.380Z,42.35
2018-05-13T08:06:55.454Z,40.14
2018-05-13T08:09:23.489Z,40.56
2018-05-13T08:11:51.421Z,40.26
2018-05-13T08:14:19.516Z,40.31
2018-05-13T08:16:47.593Z,37.90
2018-05-13T08:19:15.634Z,41.15
2018-05-13T08:21:43.786Z,41.91
2018-05-13T08:24:11.815Z,42.29
2018-05-13T08:26:39.845Z,42.12
2018-05-13T08:29:07.862Z,41.49
2018-05-13T08:31:35.869Z,42.75
2018-05-13T08:34:03.870Z,39.20
2018-05-13T08:36:31.882Z,41.18
2018-05-13T08:38:59.898Z,40.66
2018-05-13T08:41:27.849Z,38.59
2018-05-13T08:43:55.897Z,37.97
2018-05-13T08:46:23.937Z,36.53
2018-05-13T08:48:51.926Z,36.53
2018-05-13T08:51:19.939Z,34.28
2018-05-13T08:53:47.953Z,35.25
2018-05-13T08:56:16.127Z,36.31
2018-05-13T08:58:44.130Z,34.93
2018-05-13T09:01:12.167Z,36.49
2018-05-13T09:03:40.298Z,36.44
2018-05-13T09:06:08.340Z,36.15
2018-05-13T09:08:36.373Z,33.19
2018-05-13T09:11:04.400Z,32.15
2018-05-13T09:13:32.394Z,36.13
2018-05-13T09:16:00.433Z,36.99
2018-05-13T09:18:28.467Z,35.70
2018-05-13T09:20:56.499Z,34.34
2018-05-13T09:23:24.702Z,34.26
2018-05-13T09:25:52.778Z,33.32
2018-05-13T09:28:20.779Z,34.10
2018-05-13T09:30:48.783Z,37.46
2018-05-13T09:33:16.769Z,37.57
2018-05-13T09:35:44.901Z,35.62
2018-05-13T09:38:12.907Z,37.75
2018-05-13T09:40:40.934Z,36.66
2018-05-13T09:43:08.966Z,35.47
2018-05-13T09:45:37.000Z,33.19
2018-05-13T09:48:05.114Z,32.67
2018-05-13T09:50:33.217Z,36.98
2018-05-13T09:53:01.236Z,36.42
2018-05-13T09:55:29.167Z,31.39
2018-05-13T09:57:57.181Z,33.55
2018-05-13T10:00:25.156Z,32.23
2018-05-13T10:02:53.145Z,32.12
2018-05-13T10:05:21.056Z,31.82
2018-05-13T10:07:49.080Z,32.52
2018-05-13T10:10:17.078Z,29.19
2018-05-13T10:12:45.120Z,31.50
2018-05-13T10:15:13.138Z,29.80
2018-05-13T10:17:41.213Z,32.35
2018-05-13T10:20:09.186Z,31.96
2018-05-13T10:22:37.201Z,31.00
2018-05-13T10:25:05.559Z,31.80
2018-05-13T10:27:33.572Z,29.83
2018-05-13T10:30:01.534Z,31.53
2018-05-13T10:32:29.522Z,32.87
2018-05-13T10:34:57.609Z,32.98
2018-05-13T10:37:25.628Z,36.89
2018-05-13T10:39:53.730Z,36.86
2018-05-13T10:42:21.670Z,37.55
2018-05-13T10:44:49.746Z,36.19
2018-05-13T10:47:17.708Z,38.82
2018-05-13T10:49:45.730Z,38.35
2018-05-13T10:52:13.717Z,37.22
2018-05-13T10:54:41.682Z,38.01
2018-05-13T10:57:09.648Z,38.87
2018-05-13T10:59:37.669Z,37.74
2018-05-13T11:02:05.706Z,36.85
2018-05-13T11:04:33.711Z,38.50
2018-05-13T11:07:01.702Z,38.29
2018-05-13T11:09:29.752Z,38.87
2018-05-13T11:11:57.769Z,40.53
2018-05-13T11:14:25.864Z,40.58
2018-05-13T11:16:53.886Z,41.91
2018-05-13T11:19:21.923Z,38.42
2018-05-13T11:21:49.988Z,38.22
2018-05-13T11:24:17.986Z,35.38
2018-05-13T11:26:46.423Z,35.15
2018-05-13T11:29:14.378Z,38.04
2018-05-13T11:31:42.388Z,36.09
2018-05-13T11:34:10.398Z,32.20
2018-05-13T11:36:38.419Z,31.73
2018-05-13T11:39:06.529Z,30.61
2018-05-13T11:41:34.515Z,29.52
2018-05-13T11:44:02.495Z,31.44
2018-05-13T11:46:30.544Z,30.62
2018-05-13T11:48:58.569Z,31.22
2018-05-13T11:51:26.566Z,32.47
2018-05-13T11:53:54.582Z,35.05
2018-05-13T11:56:22.579Z,35.95
2018-05-13T11:58:50.582Z,37.95
2018-05-13T12:01:19.542Z,39.21
2018-05-13T12:03:47.535Z,41.90
2018-05-13T12:06:15.555Z,40.73
2018-05-13T12:08:43.563Z,44.44
2018-05-13T12:11:11.598Z,45.06
2018-05-13T12:13:39.564Z,46.11
2018-05-13T12:16:07.653Z,46.22
2018-05-13T12:18:35.937Z,45.83
2018-05-13T12:21:03.994Z,47.87
2018-05-13T12:23:32.007Z,48.43
2018-05-13T12:25:59.960Z,48.58
2018-05-13T12:28:28.291Z,50.60
2018-05-13T12:30:56.214Z,50.32
2018-05-13T12:33:24.165Z,50.28
2018-05-13T12:35:52.188Z,51.13
2018-05-13T12:38:20.145Z,52.27
2018-05-13T12:40:48.144Z,53.23
2018-05-13T12:43:16.201Z,52.60
2018-05-13T12:45:44.162Z,55.21
2018-05-13T12:48:12.159Z,58.05
2018-05-13T12:50:40.129Z,64.15
2018-05-13T12:53:08.222Z,60.81
2018-05-13T12:55:36.220Z,58.08
2018-05-13T12:58:04.248Z,55.43
2018-05-13T13:00:32.262Z,54.48
2018-05-13T13:03:00.280Z,53.00
2018-05-13T13:05:28.284Z,55.61
2018-05-13T13:07:56.316Z,50.81
2018-05-13T13:10:24.358Z,49.78
2018-05-13T13:12:52.494Z,50.57
2018-05-13T13:15:20.476Z,48.77
2018-05-13T13:17:48.587Z,46.90
2018-05-13T13:20:16.571Z,40.69
2018-05-13T13:22:44.618Z,42.72
2018-05-13T13:25:12.683Z,44.90
2018-05-13T13:27:40.787Z,44.00
2018-05-13T13:30:08.956Z,45.23
2018-05-13T13:32:37.025Z,44.72
2018-05-13T13:35:05.202Z,42.97
2018-05-13T13:37:33.218Z,48.41
2018-05-13T13:40:01.239Z,47.80
2018-05-13T13:42:29.213Z,48.07
2018-05-13T13:44:57.233Z,51.00
2018-05-13T13:47:25.393Z,52.62
2018-05-13T13:49:53.409Z,54.94
2018-05-13T13:52:21.430Z,56.89
2018-05-13T13:54:49.443Z,55.11
2018-05-13T13:57:17.446Z,56.54
2018-05-13T13:59:45.483Z,57.51
2018-05-13T14:02:13.498Z,54.47
2018-05-13T14:04:41.519Z,53.12
2018-05-13T14:07:09.500Z,52.15
2018-05-13T14:09:37.439Z,50.02
2018-05-13T14:12:05.515Z,48.78
2018-05-13T14:14:33.580Z,49.01
2018-05-13T14:17:01.726Z,49.99
2018-05-13T14:19:29.709Z,49.92
2018-05-13T14:21:57.699Z,50.24
2018-05-13T14:24:25.839Z,50.64
2018-05-13T14:26:53.892Z,51.46
2018-05-13T14:29:21.955Z,51.73
2018-05-13T14:31:50.365Z,48.47
2018-05-13T14:34:19.135Z,49.87
2018-05-13T14:36:47.050Z,48.67
2018-05-13T14:39:15.058Z,51.52
2018-05-13T14:41:43.093Z,52.05
2018-05-13T14:44:11.209Z,51.12
2018-05-13T14:46:39.289Z,50.71
2018-05-13T14:49:07.253Z,52.13
2018-05-13T14:51:35.288Z,53.28
2018-05-13T14:54:03.280Z,49.41
2018-05-13T14:56:31.353Z,52.58
2018-05-13T14:58:59.341Z,50.35
2018-05-13T15:01:27.384Z,51.79
2018-05-13T15:03:55.375Z,51.92
2018-05-13T15:06:23.284Z,54.83
2018-05-13T15:08:51.268Z,56.04
2018-05-13T15:11:19.326Z,55.73
2018-05-13T15:13:47.374Z,54.19
2018-05-13T15:16:15.358Z,53.22
2018-05-13T15:18:43.337Z,52.96
2018-05-13T15:21:11.399Z,51.98
2018-05-13T15:23:39.370Z,52.85
2018-05-13T15:26:07.403Z,53.11
2018-05-13T15:28:35.467Z,53.67
2018-05-13T15:31:03.432Z,54.38
2018-05-13T15:33:31.878Z,55.35
2018-05-13T15:36:00.307Z,56.18
2018-05-13T15:38:28.299Z,55.35
2018-05-13T15:40:56.193Z,53.43
2018-05-13T15:43:24.281Z,53.98
2018-05-13T15:45:52.278Z,53.26
2018-05-13T15:48:20.267Z,51.82
2018-05-13T15:50:48.281Z,53.80
2018-05-13T15:53:16.214Z,53.51
2018-05-13T15:55:44.287Z,54.93
2018-05-13T15:58:12.337Z,54.23
2018-05-13T16:00:40.407Z,55.35
2018-05-13T16:03:08.446Z,53.33
2018-05-13T16:05:36.442Z,52.37
2018-05-13T16:08:04.453Z,55.66
2018-05-13T16:10:32.398Z,56.16
2018-05-13T16:13:00.404Z,58.41
2018-05-13T16:15:28.388Z,63.45
2018-05-13T16:17:56.370Z,63.18
2018-05-13T16:20:24.437Z,64.59
2018-05-13T16:22:52.475Z,66.69
2018-05-13T16:25:20.515Z,63.55
2018-05-13T16:27:48.498Z,61.50
2018-05-13T16:30:16.511Z,64.05
2018-05-13T16:32:44.672Z,64.75
2018-05-13T16:35:12.785Z,60.86
2018-05-13T16:37:40.819Z,57.43
2018-05-13T16:40:08.872Z,58.55
2018-05-13T16:42:36.862Z,57.76
2018-05-13T16:45:04.936Z,59.09
2018-05-13T16:47:33.156Z,60.62
2018-05-13T16:50:01.180Z,63.12
2018-05-13T16:52:29.198Z,60.34
2018-05-13T16:54:57.225Z,62.86
2018-05-13T16:57:25.263Z,62.09
2018-05-13T16:59:53.280Z,62.56
2018-05-13T17:02:21.403Z,65.04
2018-05-13T17:04:50.414Z,65.48
2018-05-13T17:07:18.455Z,63.20
2018-05-13T17:09:46.464Z,62.56
2018-05-13T17:12:14.464Z,63.92
2018-05-13T17:14:42.458Z,65.01
2018-05-13T17:17:10.550Z,63.85
2018-05-13T17:19:38.514Z,65.37
2018-05-13T17:22:06.519Z,65.85
2018-05-13T17:24:34.551Z,66.22
2018-05-13T17:27:02.646Z,64.17
2018-05-13T17:29:30.654Z,66.04
2018-05-13T17:31:58.641Z,67.59
2018-05-13T17:34:26.589Z,65.13
2018-05-13T17:36:55.035Z,66.89
2018-05-13T17:39:23.069Z,67.74
2018-05-13T17:41:51.154Z,68.51
2018-05-13T17:44:19.137Z,68.18
2018-05-13T17:46:47.130Z,66.53
2018-05-13T17:49:15.165Z,67.21
2018-05-13T17:51:43.182Z,69.20
2018-05-13T17:54:11.169Z,66.84
2018-05-13T17:56:39.170Z,68.56
2018-05-13T17:59:07.179Z,68.44
2018-05-13T18:01:35.195Z,66.66
2018-05-13T18:04:03.208Z,66.99
2018-05-13T18:06:31.238Z,65.43
2018-05-13T18:08:59.269Z,65.52
2018-05-13T18:11:27.373Z,66.00
2018-05-13T18:13:55.391Z,65.84
2018-05-13T18:16:23.397Z,63.96
2018-05-13T18:18:51.380Z,65.58
2018-05-13T18:21:19.359Z,67.52
2018-05-13T18:23:47.375Z,66.79
2018-05-13T18:26:15.416Z,67.64
2018-05-13T18:28:43.465Z,65.81
2018-05-13T18:31:11.561Z,66.60
2018-05-13T18:33:39.644Z,66.27
2018-05-13T18:36:07.628Z,68.81
2018-05-13T18:38:35.996Z,68.34
2018-05-13T18:41:03.997Z,70.91
2018-05-13T18:43:32.015Z,69.66
2018-05-13T18:45:59.951Z,70.22
2018-05-13T18:48:27.949Z,68.39
2018-05-13T18:50:56.044Z,67.12
2018-05-13T18:53:24.047Z,67.88
2018-05-13T18:55:52.104Z,67.55
2018-05-13T18:58:20.099Z,68.56
2018-05-13T19:00:48.083Z,68.28
2018-05-13T19:03:16.067Z,68.59
2018-05-13T19:05:44.081Z,68.43
2018-05-13T19:08:12.165Z,68.53
2018-05-13T19:10:40.105Z,66.73
2018-05-13T19:13:08.129Z,67.24
2018-05-13T19:15:36.126Z,67.11
2018-05-13T19:18:04.151Z,68.74
2018-05-13T19:20:32.274Z,70.03
2018-05-13T19:23:00.259Z,66.68
2018-05-13T19:25:28.283Z,66.10
2018-05-13T19:27:56.305Z,67.37
2018-05-13T19:30:24.284Z,66.28
2018-05-13T19:32:52.404Z,65.36
2018-05-13T19:35:20.294Z,66.45
2018-05-13T19:37:48.370Z,68.92
2018-05-13T19:40:16.691Z,70.52
2018-05-13T19:42:44.722Z,69.12
2018-05-13T19:45:12.687Z,68.35
2018-05-13T19:47:40.698Z,69.55
2018-05-13T19:50:08.762Z,69.01
2018-05-13T19:52:36.783Z,67.62
2018-05-13T19:55:05.355Z,69.39
2018-05-13T19:57:34.068Z,69.38
2018-05-13T20:00:02.421Z,70.15
2018-05-13T20:02:30.404Z,70.71
2018-05-13T20:04:58.398Z,69.91
2018-05-13T20:07:26.376Z,70.14
2018-05-13T20:09:54.523Z,70.07
2018-05-13T20:12:22.516Z,69.28
2018-05-13T20:14:50.563Z,67.51
2018-05-13T20:17:18.529Z,65.80
2018-05-13T20:19:46.795Z,65.99
2018-05-13T20:22:15.117Z,65.98
2018-05-13T20:24:43.959Z,68.71
2018-05-13T20:27:12.522Z,68.30
2018-05-13T20:29:41.311Z,69.45
2018-05-13T20:32:09.614Z,68.11
2018-05-13T20:34:37.957Z,66.40
2018-05-13T20:37:06.588Z,67.64
2018-05-13T20:39:34.961Z,65.60
2018-05-13T20:42:03.611Z,64.78
2018-05-13T20:44:31.654Z,65.30
2018-05-13T20:47:00.168Z,65.85
2018-05-13T20:49:28.645Z,65.43
2018-05-13T20:51:57.290Z,64.96
2018-05-13T20:54:25.710Z,64.01
2018-05-13T20:56:54.049Z,64.44
2018-05-13T20:59:22.578Z,65.03
2018-05-13T21:01:51.146Z,65.47
2018-05-13T21:04:19.538Z,66.23
2018-05-13T21:06:48.122Z,65.73
2018-05-13T21:09:16.496Z,65.59
2018-05-13T21:11:45.097Z,65.84
2018-05-13T21:14:13.546Z,65.90
2018-05-13T21:16:41.641Z,64.85
2018-05-13T21:19:09.632Z,65.60
2018-05-13T21:21:37.672Z,65.15
2018-05-13T21:24:05.678Z,64.84
2018-05-13T21:26:33.650Z,64.83
2018-05-13T21:29:01.620Z,64.89
2018-05-13T21:31:29.699Z,65.11
2018-05-13T21:33:58.017Z,64.82
2018-05-13T21:36:26.564Z,64.96
2018-05-13T21:38:54.554Z,64.62
2018-05-13T21:41:22.574Z,64.54
2018-05-13T21:43:50.835Z,65.30
2018-05-13T21:46:18.826Z,65.22
2018-05-13T21:48:46.860Z,64.69
2018-05-13T21:51:14.867Z,65.53
2018-05-13T21:53:42.845Z,65.03
2018-05-13T21:56:10.870Z,66.57
2018-05-13T21:58:38.825Z,66.06
2018-05-13T22:01:06.825Z,68.29
2018-05-13T22:03:34.793Z,67.68
2018-05-13T22:06:02.740Z,66.53
2018-05-13T22:08:30.698Z,67.41
2018-05-13T22:10:58.748Z,65.69
2018-05-13T22:13:26.780Z,65.76
2018-05-13T22:15:54.852Z,64.64
2018-05-13T22:18:23.391Z,64.62
2018-05-13T22:20:51.284Z,65.41
2018-05-13T22:23:19.315Z,66.26
2018-05-13T22:25:47.366Z,69.12
2018-05-13T22:28:15.402Z,66.64
2018-05-13T22:30:43.451Z,65.95
2018-05-13T22:33:11.397Z,67.79
2018-05-13T22:35:39.449Z,69.50
2018-05-13T22:38:07.508Z,68.74
2018-05-13T22:40:35.538Z,68.25
2018-05-13T22:43:03.617Z,67.23
2018-05-13T22:45:31.978Z,65.90
2018-05-13T22:48:00.046Z,66.52
2018-05-13T22:50:28.016Z,65.81
2018-05-13T22:52:56.077Z,65.56
2018-05-13T22:55:24.118Z,65.96
2018-05-13T22:57:52.945Z,65.18
2018-05-13T23:00:21.248Z,65.15
2018-05-13T23:02:49.906Z,65.11
2018-05-13T23:05:17.851Z,65.89
2018-05-13T23:07:45.736Z,65.57
2018-05-13T23:10:13.863Z,66.88
2018-05-13T23:12:41.893Z,67.58
2018-05-13T23:15:09.907Z,66.07
2018-05-13T23:17:37.878Z,65.63
2018-05-13T23:20:06.043Z,64.81
2018-05-13T23:22:36.366Z,64.72
2018-05-13T23:25:04.697Z,65.68
2018-05-13T23:27:33.024Z,67.12
2018-05-13T23:30:01.365Z,68.22
2018-05-13T23:32:29.910Z,66.51
2018-05-13T23:34:58.211Z,67.43
2018-05-13T23:37:26.566Z,67.58
2018-05-13T23:39:54.859Z,69.49
2018-05-13T23:42:23.229Z,69.12
2018-05-13T23:44:51.561Z,68.97
2018-05-13T23:47:20.350Z,69.17
2018-05-13T23:49:48.662Z,69.65
2018-05-13T23:52:16.974Z,69.73
2018-05-13T23:54:45.418Z,68.11
2018-05-13T23:57:13.898Z,67.84
2018-05-13T23:59:41.981Z,67.99
